Time;durP1;ratioP1;P1;durP2;ratioP2;P2;SDS_P1;SDS_P2;PMS_P1;PMS_P2;Temp;Humidity;BMP_temperature;BMP_pressure;BME280_temperature;BME280_humidity;BME280_pressure;Samples;Min_cycle;Max_cycle;Signal;HPM_P1;HPM_P2
2022/01/23 00:00:36;;;;;;;22.00;10.30;;;;;;;;;;5128836;27;20524;-62
2022/01/23 00:03:07;;;;;;;25.83;10.30;;;;;;;;;;5129014;27;20063;-63
2022/01/23 00:05:37;;;;;;;23.15;10.48;;;;;;;;;;5130039;27;20496;-62
2022/01/23 00:08:05;;;;;;;17.42;10.05;;;;;;;;;;5129270;27;20062;-62
2022/01/23 00:10:32;;;;;;;19.42;10.32;;;;;;;;;;5128582;27;20593;-62
2022/01/23 00:13:24;;;;;;;19.58;9.57;;;;;;;;;;5129322;27;20536;-62
2022/01/23 00:18:36;;;;;;;21.33;10.48;;;;;;;;;;5128563;27;20044;-62
2022/01/23 00:21:02;;;;;;;21.13;9.85;;;;;;;;;;5128736;27;20048;-62
2022/01/23 00:30:20;;;;;;;18.63;9.65;;;;;;;;;;5129579;27;20062;-62
2022/01/23 00:31:51;;;;;;;17.73;8.98;;;;;;;;;;5129249;27;20146;-62
2022/01/23 00:34:19;;;;;;;15.88;8.60;;;;;;;;;;5132681;27;20051;-62
2022/01/23 00:36:45;;;;;;;17.23;8.50;;;;;;;;;;5131377;27;20509;-62
2022/01/23 00:39:12;;;;;;;17.55;9.10;;;;;;;;;;5132582;27;20058;-62
2022/01/23 00:41:38;;;;;;;17.23;9.07;;;;;;;;;;5132807;27;20064;-62
2022/01/23 00:44:04;;;;;;;20.05;8.65;;;;;;;;;;5131402;27;20543;-62
2022/01/23 00:46:34;;;;;;;19.40;9.43;;;;;;;;;;5132599;27;20047;-62
2022/01/23 00:51:29;;;;;;;19.70;8.63;;;;;;;;;;5131138;27;20082;-62
2022/01/23 00:53:56;;;;;;;17.13;8.63;;;;;;;;;;5132409;27;20048;-62
2022/01/23 00:56:23;;;;;;;20.45;8.45;;;;;;;;;;5132221;27;20055;-62
2022/01/23 00:58:49;;;;;;;15.70;8.70;;;;;;;;;;5132193;27;20061;-62
2022/01/23 01:01:16;;;;;;;17.98;8.27;;;;;;;;;;5132245;27;20122;-62
2022/01/23 01:03:43;;;;;;;19.55;7.85;;;;;;;;;;5132322;27;20121;-62
2022/01/23 01:06:10;;;;;;;17.83;7.07;;;;;;;;;;5131643;27;20071;-62
2022/01/23 01:08:36;;;;;;;23.60;8.35;;;;;;;;;;5131981;27;20060;-62
2022/01/23 01:11:44;;;;;;;15.55;7.70;;;;;;;;;;5132493;27;20059;-62
2022/01/23 01:30:54;;;;;;;16.25;6.82;;;;;;;;;;5132074;27;20127;-63
2022/01/23 01:33:36;;;;;;;16.60;7.63;;;;;;;;;;5131133;27;20048;-63
2022/01/23 01:36:31;;;;;;;27.58;8.18;;;;;;;;;;5131650;27;20058;-63
2022/01/23 01:38:50;;;;;;;18.60;8.18;;;;;;;;;;5130695;27;20054;-63
2022/01/23 01:41:18;;;;;;;17.88;7.95;;;;;;;;;;5131510;27;20048;-62
2022/01/23 01:43:45;;;;;;;16.77;7.82;;;;;;;;;;5129950;27;20054;-62
2022/01/23 01:46:12;;;;;;;14.18;7.78;;;;;;;;;;5131847;27;20052;-62
2022/01/23 01:48:39;;;;;;;16.70;7.68;;;;;;;;;;5131125;27;20047;-62
2022/01/23 01:51:09;;;;;;;16.42;7.72;;;;;;;;;;5130739;27;20051;-62
2022/01/23 01:53:35;;;;;;;19.38;8.38;;;;;;;;;;5131903;27;20067;-63
2022/01/23 01:56:04;;;;;;;18.83;8.07;;;;;;;;;;5131028;27;20052;-62
2022/01/23 02:01:03;;;;;;;25.30;9.60;;;;;;;;;;5131202;27;20483;-63
2022/01/23 02:08:44;;;;;;;20.80;9.95;;;;;;;;;;5130311;27;20402;-63
2022/01/23 02:11:17;;;;;;;17.70;9.50;;;;;;;;;;5131280;27;20506;-63
2022/01/23 02:14:09;;;;;;;20.83;10.10;;;;;;;;;;5150749;27;20055;-62
2022/01/23 02:17:20;;;;;;;22.52;9.73;;;;;;;;;;5151715;27;20055;-63
2022/01/23 02:25:16;;;;;;;20.95;9.10;;;;;;;;;;5151246;27;20641;-63
2022/01/23 02:52:56;;;;;;;21.23;10.40;;;;;;;;;;5151059;27;20135;-62
2022/01/23 02:55:26;;;;;;;20.00;10.30;;;;;;;;;;5150600;27;20053;-62
2022/01/23 02:57:57;;;;;;;24.13;10.43;;;;;;;;;;5151130;27;20051;-62
2022/01/23 03:00:27;;;;;;;17.20;9.77;;;;;;;;;;5150964;27;20935;-63
2022/01/23 03:03:01;;;;;;;18.00;8.57;;;;;;;;;;5150291;27;20100;-62
2022/01/23 03:10:36;;;;;;;15.57;8.85;;;;;;;;;;5151105;27;20139;-62
2022/01/23 03:13:37;;;;;;;13.95;6.45;;;;;;;;;;5150739;27;20140;-62
2022/01/23 03:27:04;;;;;;;18.35;9.10;;;;;;;;;;5094806;27;20049;-62
2022/01/23 03:32:40;;;;;;;19.58;8.88;;;;;;;;;;5094492;27;20048;-62
2022/01/23 03:35:06;;;;;;;20.58;9.02;;;;;;;;;;5150950;27;20058;-62
2022/01/23 03:37:33;;;;;;;19.50;8.80;;;;;;;;;;5151350;27;20093;-62
2022/01/23 03:39:59;;;;;;;16.15;7.95;;;;;;;;;;5150656;27;20047;-62
2022/01/23 03:42:27;;;;;;;16.27;8.18;;;;;;;;;;5150846;27;20141;-62
2022/01/23 03:47:41;;;;;;;11.13;6.25;;;;;;;;;;5150550;27;20147;-62
2022/01/23 03:50:11;;;;;;;9.68;5.07;;;;;;;;;;5150281;27;20468;-62
2022/01/23 03:52:38;;;;;;;8.95;4.18;;;;;;;;;;5149685;27;20484;-62
2022/01/23 03:55:06;;;;;;;13.00;5.15;;;;;;;;;;5149224;27;20592;-62
2022/01/23 03:57:33;;;;;;;12.10;4.90;;;;;;;;;;5149667;27;20047;-62
2022/01/23 03:59:59;;;;;;;11.60;4.60;;;;;;;;;;5149502;27;20061;-62
2022/01/23 04:02:25;;;;;;;13.13;4.57;;;;;;;;;;5151279;27;20067;-62
2022/01/23 04:04:52;;;;;;;10.32;5.07;;;;;;;;;;5149589;27;20134;-62
2022/01/23 04:07:22;;;;;;;9.40;4.57;;;;;;;;;;5151119;27;20051;-62
2022/01/23 04:09:48;;;;;;;9.88;4.45;;;;;;;;;;5150940;27;20061;-62
2022/01/23 04:12:48;;;;;;;8.32;4.00;;;;;;;;;;5150128;27;20082;-62
2022/01/23 04:45:20;;;;;;;11.18;5.10;;;;;;;;;;5150214;27;20074;-62
2022/01/23 05:02:02;;;;;;;10.95;5.90;;;;;;;;;;5150326;27;20051;-62
2022/01/23 05:04:30;;;;;;;8.95;4.93;;;;;;;;;;5148381;27;20051;-62
2022/01/23 05:07:09;;;;;;;11.07;5.35;;;;;;;;;;5150265;27;20897;-62
2022/01/23 05:09:35;;;;;;;;;;;;;;;;;;5150281;27;20053;-62
2022/01/23 05:12:06;;;;;;;10.80;5.45;;;;;;;;;;5148471;27;43465;-62
2022/01/23 05:14:36;;;;;;;11.80;5.53;;;;;;;;;;5149396;27;20505;-63
2022/01/23 05:17:04;;;;;;;11.35;5.13;;;;;;;;;;5150041;27;20058;-62
2022/01/23 05:19:32;;;;;;;8.70;5.13;;;;;;;;;;5152300;27;20112;-62
2022/01/23 05:24:45;;;;;;;10.00;5.18;;;;;;;;;;5153698;27;20134;-63
2022/01/23 05:27:12;;;;;;;18.38;5.93;;;;;;;;;;5153055;27;20069;-63
2022/01/23 05:29:38;;;;;;;13.00;5.60;;;;;;;;;;5153663;27;20520;-63
2022/01/23 05:32:05;;;;;;;10.00;5.63;;;;;;;;;;5152953;27;20057;-62
2022/01/23 05:34:31;;;;;;;10.43;5.50;;;;;;;;;;5152799;27;20055;-62
2022/01/23 05:36:58;;;;;;;10.85;5.38;;;;;;;;;;5153390;27;20149;-63
2022/01/23 05:39:26;;;;;;;10.70;5.18;;;;;;;;;;5152380;27;20059;-62
2022/01/23 05:41:58;;;;;;;12.25;6.47;;;;;;;;;;5152885;27;20047;-63
2022/01/23 05:44:25;;;;;;;15.02;5.93;;;;;;;;;;5153534;27;20057;-62
2022/01/23 05:46:52;;;;;;;13.50;5.72;;;;;;;;;;5152969;27;20497;-63
2022/01/23 05:49:18;;;;;;;13.25;5.78;;;;;;;;;;5153478;27;20047;-63
2022/01/23 05:51:45;;;;;;;14.52;6.07;;;;;;;;;;5153022;27;20055;-62
2022/01/23 05:54:11;;;;;;;15.48;7.28;;;;;;;;;;5152669;27;20055;-63
2022/01/23 05:56:37;;;;;;;12.82;6.47;;;;;;;;;;5152465;27;20047;-63
2022/01/23 05:59:04;;;;;;;15.40;6.97;;;;;;;;;;5151215;27;20137;-63
2022/01/23 06:01:30;;;;;;;21.65;7.20;;;;;;;;;;5151462;27;20063;-63
2022/01/23 06:03:56;;;;;;;15.02;7.47;;;;;;;;;;5150620;27;20043;-62
2022/01/23 06:06:22;;;;;;;15.35;7.43;;;;;;;;;;5152782;27;20053;-62
2022/01/23 06:08:49;;;;;;;15.88;7.70;;;;;;;;;;5151568;27;20051;-62
2022/01/23 06:11:16;;;;;;;16.60;7.57;;;;;;;;;;5152039;27;20051;-62
2022/01/23 06:13:42;;;;;;;14.27;6.85;;;;;;;;;;5151249;27;20047;-62
2022/01/23 06:16:08;;;;;;;16.63;7.70;;;;;;;;;;5151634;27;20051;-62
2022/01/23 06:18:38;;;;;;;16.17;6.95;;;;;;;;;;5151238;27;20606;-62
2022/01/23 06:21:04;;;;;;;18.45;7.50;;;;;;;;;;5151557;27;20051;-62
2022/01/23 06:23:31;;;;;;;17.38;7.60;;;;;;;;;;5151123;27;20134;-62
2022/01/23 06:25:58;;;;;;;15.55;7.32;;;;;;;;;;5151801;27;20059;-62
2022/01/23 06:28:43;;;;;;;13.48;7.07;;;;;;;;;;5151577;27;20428;-62
2022/01/23 06:31:10;;;;;;;11.88;6.28;;;;;;;;;;5149339;27;20211;-62
2022/01/23 06:33:36;;;;;;;12.98;6.47;;;;;;;;;;5150714;27;20062;-62
2022/01/23 06:36:06;;;;;;;15.60;6.97;;;;;;;;;;5150794;27;20062;-62
2022/01/23 06:38:33;;;;;;;12.95;5.47;;;;;;;;;;5151029;27;20047;-63
2022/01/23 06:40:59;;;;;;;9.57;5.55;;;;;;;;;;5150816;27;20058;-62
2022/01/23 06:43:25;;;;;;;11.38;5.78;;;;;;;;;;5150405;27;20049;-62
2022/01/23 06:45:52;;;;;;;16.15;7.22;;;;;;;;;;5151262;27;20066;-62
2022/01/23 06:48:18;;;;;;;12.50;6.60;;;;;;;;;;5150919;27;20137;-62
2022/01/23 06:50:44;;;;;;;14.10;6.53;;;;;;;;;;5150852;27;20095;-61
2022/01/23 06:53:11;;;;;;;12.43;6.18;;;;;;;;;;5149782;27;20106;-62
2022/01/23 06:55:37;;;;;;;13.10;6.15;;;;;;;;;;5151065;27;20147;-62
2022/01/23 06:58:03;;;;;;;14.13;6.45;;;;;;;;;;5150883;27;20079;-62
2022/01/23 07:00:32;;;;;;;15.40;6.45;;;;;;;;;;5150107;27;20432;-64
2022/01/23 07:02:59;;;;;;;12.95;6.10;;;;;;;;;;5150572;27;20448;-61
2022/01/23 07:05:26;;;;;;;12.30;6.45;;;;;;;;;;5150672;27;20063;-61
2022/01/23 07:07:52;;;;;;;13.32;6.80;;;;;;;;;;5150670;27;20057;-62
2022/01/23 07:10:20;;;;;;;13.93;6.75;;;;;;;;;;5151218;27;20047;-62
2022/01/23 07:12:46;;;;;;;11.97;6.10;;;;;;;;;;5150526;27;20057;-61
2022/01/23 07:15:12;;;;;;;12.60;6.47;;;;;;;;;;5150394;27;20055;-62
2022/01/23 07:17:40;;;;;;;15.52;6.43;;;;;;;;;;5149936;27;20432;-61
2022/01/23 07:20:06;;;;;;;15.95;6.50;;;;;;;;;;5149886;27;20053;-61
2022/01/23 07:22:33;;;;;;;10.88;6.20;;;;;;;;;;5150729;27;20057;-62
2022/01/23 07:25:02;;;;;;;14.98;6.32;;;;;;;;;;5150357;27;20142;-61
2022/01/23 07:27:32;;;;;;;15.65;6.78;;;;;;;;;;5150579;27;20047;-62
2022/01/23 07:29:59;;;;;;;13.15;5.72;;;;;;;;;;5150552;27;20501;-61
2022/01/23 07:32:25;;;;;;;12.57;6.45;;;;;;;;;;5150196;27;20138;-62
2022/01/23 07:34:51;;;;;;;14.48;7.03;;;;;;;;;;5150412;27;20043;-61
2022/01/23 07:37:17;;;;;;;14.57;6.90;;;;;;;;;;5150867;27;20055;-62
2022/01/23 07:39:44;;;;;;;14.63;6.53;;;;;;;;;;5150037;27;20047;-63
2022/01/23 07:42:10;;;;;;;12.30;6.47;;;;;;;;;;5149151;27;20847;-62
2022/01/23 07:44:36;;;;;;;13.18;6.78;;;;;;;;;;5149805;27;20523;-63
2022/01/23 07:47:03;;;;;;;14.55;6.68;;;;;;;;;;5149814;27;20398;-62
2022/01/23 07:49:30;;;;;;;15.40;6.47;;;;;;;;;;5149995;27;20047;-63
2022/01/23 07:51:57;;;;;;;17.00;7.85;;;;;;;;;;5150621;27;20512;-63
2022/01/23 07:54:23;;;;;;;16.45;7.32;;;;;;;;;;5150595;27;20505;-62
2022/01/23 07:56:49;;;;;;;15.82;7.75;;;;;;;;;;5150465;27;20516;-63
2022/01/23 07:59:16;;;;;;;14.98;7.20;;;;;;;;;;5150027;27;20142;-63
2022/01/23 08:01:42;;;;;;;15.15;7.18;;;;;;;;;;5149724;27;20077;-63
2022/01/23 08:04:09;;;;;;;13.70;6.80;;;;;;;;;;5149897;27;20055;-63
2022/01/23 08:06:43;;;;;;;13.25;6.55;;;;;;;;;;5131610;27;20051;-62
2022/01/23 08:09:10;;;;;;;13.90;7.03;;;;;;;;;;5149882;27;20493;-63
2022/01/23 08:11:36;;;;;;;16.52;6.65;;;;;;;;;;5149953;27;20497;-63
2022/01/23 08:14:02;;;;;;;13.75;7.35;;;;;;;;;;5148813;27;20058;-63
2022/01/23 08:16:29;;;;;;;17.10;7.07;;;;;;;;;;5150374;27;20051;-63
2022/01/23 08:18:56;;;;;;;15.15;7.03;;;;;;;;;;5149345;27;20436;-62
2022/01/23 08:21:22;;;;;;;13.98;7.40;;;;;;;;;;5149480;27;20051;-63
2022/01/23 08:23:52;;;;;;;15.18;7.18;;;;;;;;;;5149959;27;20528;-63
2022/01/23 08:26:20;;;;;;;16.88;7.78;;;;;;;;;;5150172;27;20141;-62
2022/01/23 08:28:46;;;;;;;14.95;6.78;;;;;;;;;;5149349;27;20108;-63
2022/01/23 08:31:12;;;;;;;15.00;7.05;;;;;;;;;;5149021;27;20172;-63
2022/01/23 08:33:39;;;;;;;14.45;7.45;;;;;;;;;;5149709;27;20104;-63
2022/01/23 08:36:05;;;;;;;16.83;7.32;;;;;;;;;;5148874;27;20047;-63
2022/01/23 08:38:31;;;;;;;15.45;7.38;;;;;;;;;;5150085;27;21445;-63
2022/01/23 08:43:43;;;;;;;19.15;8.30;;;;;;;;;;5149595;27;20058;-63
2022/01/23 08:46:10;;;;;;;17.48;8.13;;;;;;;;;;5148828;27;20051;-63
2022/01/23 08:48:36;;;;;;;14.05;7.30;;;;;;;;;;5149363;27;20047;-63
2022/01/23 08:51:03;;;;;;;13.68;6.65;;;;;;;;;;5149627;27;20051;-62
2022/01/23 08:53:29;;;;;;;14.30;7.53;;;;;;;;;;5149311;27;20047;-62
2022/01/23 08:55:55;;;;;;;14.38;7.45;;;;;;;;;;5151621;27;20055;-63
2022/01/23 08:58:22;;;;;;;13.25;6.72;;;;;;;;;;5153173;27;20071;-62
2022/01/23 09:00:48;;;;;;;14.85;7.47;;;;;;;;;;5134510;27;20145;-62
2022/01/23 09:03:15;;;;;;;13.68;6.93;;;;;;;;;;5152819;27;20147;-63
2022/01/23 09:05:41;;;;;;;16.35;7.30;;;;;;;;;;5152558;27;20051;-63
2022/01/23 09:08:08;;;;;;;12.93;6.60;;;;;;;;;;5153114;27;20051;-63
2022/01/23 09:10:41;;;;;;;15.32;7.72;;;;;;;;;;5152774;27;20513;-63
2022/01/23 09:13:16;;;;;;;13.70;7.32;;;;;;;;;;5151992;27;20146;-63
2022/01/23 09:15:44;;;;;;;13.73;6.90;;;;;;;;;;5152553;27;20055;-62
2022/01/23 09:18:10;;;;;;;13.77;7.45;;;;;;;;;;5152784;27;20086;-62
2022/01/23 09:20:38;;;;;;;13.23;6.88;;;;;;;;;;5151406;27;20564;-62
2022/01/23 09:23:04;;;;;;;16.77;7.13;;;;;;;;;;5152640;27;20084;-62
2022/01/23 09:25:30;;;;;;;16.23;7.63;;;;;;;;;;5152392;27;20057;-62
2022/01/23 09:28:00;;;;;;;15.85;7.22;;;;;;;;;;5151754;27;20039;-63
2022/01/23 09:30:34;;;;;;;16.05;7.53;;;;;;;;;;5152166;27;20051;-63
2022/01/23 09:33:02;;;;;;;14.43;7.18;;;;;;;;;;5152303;27;20055;-63
2022/01/23 09:35:28;;;;;;;14.98;7.72;;;;;;;;;;5152530;27;20512;-63
2022/01/23 09:37:55;;;;;;;14.90;7.88;;;;;;;;;;5151566;27;20055;-63
2022/01/23 09:40:21;;;;;;;16.23;8.50;;;;;;;;;;5152202;27;20045;-62
2022/01/23 09:42:47;;;;;;;17.52;8.50;;;;;;;;;;5152265;27;20062;-63
2022/01/23 09:45:14;;;;;;;18.08;8.98;;;;;;;;;;5151026;27;20051;-63
2022/01/23 09:47:41;;;;;;;19.00;8.85;;;;;;;;;;5152263;27;20549;-62
2022/01/23 09:50:09;;;;;;;16.10;8.60;;;;;;;;;;5151867;27;20061;-62
2022/01/23 09:52:36;;;;;;;17.95;8.90;;;;;;;;;;5151741;27;20134;-62
2022/01/23 09:55:09;;;;;;;18.98;8.15;;;;;;;;;;5151318;27;20176;-62
2022/01/23 09:57:45;;;;;;;18.48;8.98;;;;;;;;;;5151947;27;20961;-62
2022/01/23 10:00:13;;;;;;;19.20;8.82;;;;;;;;;;5151984;27;20597;-63
2022/01/23 10:02:40;;;;;;;19.35;9.23;;;;;;;;;;5151495;27;20061;-62
2022/01/23 10:05:07;;;;;;;18.20;9.23;;;;;;;;;;5152017;27;20044;-63
2022/01/23 10:07:35;;;;;;;14.77;8.77;;;;;;;;;;5151436;27;20065;-63
2022/01/23 10:10:18;;;;;;;15.73;7.82;;;;;;;;;;5150872;27;20174;-63
2022/01/23 10:12:50;;;;;;;16.75;8.50;;;;;;;;;;5151747;27;20047;-63
2022/01/23 10:15:18;;;;;;;17.10;8.38;;;;;;;;;;5151407;27;20560;-63
2022/01/23 10:17:44;;;;;;;17.63;7.90;;;;;;;;;;5151635;27;20065;-62
2022/01/23 10:20:12;;;;;;;17.77;8.75;;;;;;;;;;5151175;27;20057;-63
2022/01/23 10:22:41;;;;;;;16.27;8.32;;;;;;;;;;5151385;27;20124;-62
2022/01/23 10:25:12;;;;;;;17.80;8.80;;;;;;;;;;5151720;27;20082;-63
2022/01/23 10:28:03;;;;;;;16.45;8.07;;;;;;;;;;5151040;27;20833;-63
2022/01/23 10:30:32;;;;;;;15.45;8.18;;;;;;;;;;5138240;27;20414;-63
2022/01/23 10:33:00;;;;;;;14.98;8.50;;;;;;;;;;5151304;27;20174;-63
2022/01/23 10:35:26;;;;;;;17.35;8.88;;;;;;;;;;5151016;27;20051;-62
2022/01/23 10:37:54;;;;;;;18.20;9.48;;;;;;;;;;5150566;27;20058;-63
2022/01/23 10:40:20;;;;;;;15.77;8.55;;;;;;;;;;5150918;27;20054;-63
2022/01/23 10:48:57;;;;;;;14.95;8.25;;;;;;;;;;5150585;27;20051;-63
2022/01/23 10:51:18;;;;;;;15.75;8.10;;;;;;;;;;5139528;27;20059;-63
2022/01/23 10:54:03;;;;;;;17.55;8.52;;;;;;;;;;5132726;27;20493;-63
2022/01/23 10:56:31;;;;;;;15.35;8.80;;;;;;;;;;5151399;27;20077;-63
2022/01/23 10:58:57;;;;;;;15.87;9.27;;;;;;;;;;5150748;27;20059;-63
2022/01/23 11:01:24;;;;;;;16.13;7.90;;;;;;;;;;5150019;27;20512;-63
2022/01/23 11:04:04;;;;;;;14.48;8.07;;;;;;;;;;5151339;27;20058;-63
2022/01/23 11:06:31;;;;;;;14.73;8.05;;;;;;;;;;5150355;27;20058;-62
2022/01/23 11:09:07;;;;;;;16.05;8.35;;;;;;;;;;5150729;27;20053;-63
2022/01/23 11:11:45;;;;;;;16.70;8.88;;;;;;;;;;5150325;27;20051;-63
2022/01/23 11:19:46;;;;;;;19.50;8.00;;;;;;;;;;5149721;27;20051;-63
2022/01/23 11:22:16;;;;;;;16.55;8.88;;;;;;;;;;5150858;27;20066;-63
2022/01/23 11:24:45;;;;;;;18.02;9.40;;;;;;;;;;5150643;27;20516;-63
2022/01/23 11:27:12;;;;;;;16.23;8.38;;;;;;;;;;5149283;27;20045;-62
2022/01/23 11:29:52;;;;;;;16.55;8.57;;;;;;;;;;5150608;27;20051;-62
2022/01/23 11:32:19;;;;;;;19.58;8.05;;;;;;;;;;5150007;27;20051;-63
2022/01/23 11:34:45;;;;;;;16.02;8.68;;;;;;;;;;5149813;27;20134;-63
2022/01/23 11:37:13;;;;;;;17.77;8.27;;;;;;;;;;5150885;27;20055;-63
2022/01/23 11:39:46;;;;;;;16.80;9.10;;;;;;;;;;5150106;27;20505;-63
2022/01/23 11:51:05;;;;;;;15.27;8.27;;;;;;;;;;5150492;27;20051;-63
2022/01/23 11:53:52;;;;;;;16.10;8.13;;;;;;;;;;5148945;27;20065;-62
2022/01/23 11:56:25;;;;;;;16.77;8.27;;;;;;;;;;5150198;27;20051;-62
2022/01/23 11:58:53;;;;;;;17.95;8.90;;;;;;;;;;5150323;27;20051;-63
2022/01/23 12:01:22;;;;;;;15.38;8.50;;;;;;;;;;5149935;27;20609;-63
2022/01/23 12:04:11;;;;;;;16.45;8.60;;;;;;;;;;5149369;27;20602;-63
2022/01/23 12:06:38;;;;;;;15.35;7.72;;;;;;;;;;5149367;27;20050;-62
2022/01/23 12:09:07;;;;;;;16.38;8.68;;;;;;;;;;5149629;27;20486;-62
2022/01/23 12:17:00;;;;;;;15.73;8.77;;;;;;;;;;5149457;27;20087;-63
2022/01/23 12:19:28;;;;;;;18.02;9.60;;;;;;;;;;5149045;27;20051;-62
2022/01/23 12:21:56;;;;;;;16.77;9.32;;;;;;;;;;5150156;27;20168;-63
2022/01/23 12:24:23;;;;;;;17.88;8.95;;;;;;;;;;5149878;27;20054;-62
2022/01/23 12:26:51;;;;;;;20.33;10.02;;;;;;;;;;5149795;27;20055;-62
2022/01/23 12:29:23;;;;;;;15.48;9.02;;;;;;;;;;5153588;27;20051;-62
2022/01/23 12:32:28;;;;;;;19.23;10.05;;;;;;;;;;5153060;27;20058;-63
2022/01/23 12:34:59;;;;;;;17.38;9.55;;;;;;;;;;5150618;27;20051;-63
2022/01/23 12:37:46;;;;;;;16.83;9.35;;;;;;;;;;5152972;27;20584;-62
2022/01/23 12:40:29;;;;;;;15.52;8.98;;;;;;;;;;5152412;27;20047;-61
2022/01/23 12:43:05;;;;;;;16.17;8.73;;;;;;;;;;5152908;27;20057;-64
2022/01/23 12:45:55;;;;;;;15.80;8.63;;;;;;;;;;5152298;27;20142;-64
2022/01/23 12:48:24;;;;;;;18.25;9.52;;;;;;;;;;5153216;27;20100;-64
2022/01/23 12:50:52;;;;;;;16.23;9.40;;;;;;;;;;5152854;27;20057;-64
2022/01/23 12:53:18;;;;;;;17.17;9.02;;;;;;;;;;5153362;27;20065;-64
2022/01/23 12:56:04;;;;;;;19.52;10.73;;;;;;;;;;5153365;27;20139;-64
2022/01/23 12:58:34;;;;;;;19.90;9.85;;;;;;;;;;5152665;27;20059;-64
2022/01/23 13:01:04;;;;;;;17.38;10.10;;;;;;;;;;5152210;27;20135;-64
2022/01/23 13:03:30;;;;;;;17.10;8.85;;;;;;;;;;5153256;27;20043;-64
2022/01/23 13:05:57;;;;;;;16.92;9.32;;;;;;;;;;5152671;27;20514;-64
2022/01/23 13:08:34;;;;;;;19.92;9.50;;;;;;;;;;5152780;27;20145;-64
2022/01/23 13:18:42;;;;;;;15.40;8.50;;;;;;;;;;5152659;27;20055;-64
2022/01/23 13:30:13;;;;;;;19.10;9.23;;;;;;;;;;5152875;27;20575;-64
2022/01/23 13:32:40;;;;;;;17.63;10.18;;;;;;;;;;5147387;27;20058;-64
2022/01/23 13:35:11;;;;;;;18.10;10.18;;;;;;;;;;5151901;27;20134;-64
2022/01/23 13:37:39;;;;;;;17.60;9.27;;;;;;;;;;5151697;27;20521;-64
2022/01/23 13:40:06;;;;;;;20.20;9.60;;;;;;;;;;5151459;27;20091;-64
2022/01/23 13:42:48;;;;;;;17.42;8.57;;;;;;;;;;5152288;27;20055;-64
2022/01/23 13:59:14;;;;;;;15.85;9.48;;;;;;;;;;5152016;27;20075;-63
2022/01/23 14:04:20;;;;;;;19.17;9.57;;;;;;;;;;5151085;27;20055;-64
2022/01/23 14:06:46;;;;;;;17.70;9.30;;;;;;;;;;5151868;27;20061;-64
2022/01/23 14:09:13;;;;;;;16.83;9.80;;;;;;;;;;5152079;27;20150;-63
2022/01/23 14:11:40;;;;;;;17.13;9.38;;;;;;;;;;5151838;27;20051;-64
2022/01/23 14:14:26;;;;;;;17.48;9.18;;;;;;;;;;5151299;27;20052;-64
2022/01/23 14:16:54;;;;;;;17.98;9.45;;;;;;;;;;5152693;27;20051;-64
2022/01/23 14:19:27;;;;;;;19.92;9.65;;;;;;;;;;5151428;27;20061;-63
2022/01/23 14:21:59;;;;;;;17.95;9.65;;;;;;;;;;5151437;27;20169;-64
2022/01/23 14:24:28;;;;;;;22.73;10.32;;;;;;;;;;5151836;27;20145;-64
2022/01/23 14:27:06;;;;;;;21.95;10.75;;;;;;;;;;5150619;27;20048;-64
2022/01/23 14:29:34;;;;;;;18.90;9.75;;;;;;;;;;5150896;27;20047;-64
2022/01/23 14:32:07;;;;;;;17.95;10.10;;;;;;;;;;5150920;27;20146;-64
2022/01/23 14:34:33;;;;;;;20.23;10.10;;;;;;;;;;5151393;27;20051;-63
2022/01/23 14:37:03;;;;;;;21.88;10.13;;;;;;;;;;5150789;27;20059;-63
2022/01/23 14:39:30;;;;;;;21.30;10.02;;;;;;;;;;5151834;27;20178;-65
2022/01/23 14:42:08;;;;;;;17.02;9.95;;;;;;;;;;5150975;27;20051;-64
2022/01/23 14:44:35;;;;;;;20.02;10.35;;;;;;;;;;5150711;27;20050;-64
2022/01/23 14:47:01;;;;;;;19.58;10.68;;;;;;;;;;5151292;27;20058;-64
2022/01/23 14:49:30;;;;;;;19.25;9.63;;;;;;;;;;5151815;27;20055;-64
2022/01/23 14:51:58;;;;;;;18.35;10.00;;;;;;;;;;5148676;27;20553;-63
2022/01/23 14:54:25;;;;;;;17.92;10.02;;;;;;;;;;5150326;27;20043;-64
2022/01/23 14:56:52;;;;;;;21.92;11.13;;;;;;;;;;5150629;27;20058;-63
2022/01/23 14:59:18;;;;;;;19.52;10.30;;;;;;;;;;5138314;27;20050;-63
2022/01/23 15:01:45;;;;;;;19.10;9.95;;;;;;;;;;5136710;27;20051;-64
2022/01/23 15:04:12;;;;;;;17.70;9.68;;;;;;;;;;5131511;27;20134;-63
2022/01/23 15:06:44;;;;;;;17.58;8.15;;;;;;;;;;5135884;27;20059;-63
2022/01/23 15:09:12;;;;;;;17.00;7.53;;;;;;;;;;5136100;27;21177;-62
2022/01/23 15:11:38;;;;;;;14.60;7.78;;;;;;;;;;5135648;27;20047;-63
2022/01/23 15:14:05;;;;;;;13.27;7.03;;;;;;;;;;5141674;27;20513;-63
2022/01/23 15:16:32;;;;;;;13.55;6.55;;;;;;;;;;5134189;27;20531;-63
2022/01/23 15:18:58;;;;;;;15.48;7.85;;;;;;;;;;5129754;27;20544;-63
2022/01/23 15:21:24;;;;;;;13.85;6.95;;;;;;;;;;5134703;27;20051;-64
2022/01/23 15:23:55;;;;;;;13.48;7.25;;;;;;;;;;5131943;27;20059;-62
2022/01/23 15:26:27;;;;;;;13.13;6.60;;;;;;;;;;5133278;27;20137;-63
2022/01/23 15:28:54;;;;;;;13.65;7.30;;;;;;;;;;5129774;27;20106;-62
2022/01/23 15:31:20;;;;;;;15.82;7.20;;;;;;;;;;5132488;27;20051;-62
2022/01/23 15:33:46;;;;;;;13.77;7.07;;;;;;;;;;5129914;27;20123;-62
2022/01/23 15:36:13;;;;;;;16.05;7.30;;;;;;;;;;5130992;27;20059;-62
2022/01/23 15:38:43;;;;;;;14.50;7.50;;;;;;;;;;5130745;27;20043;-63
2022/01/23 15:41:13;;;;;;;15.05;7.57;;;;;;;;;;5134178;27;20051;-63
2022/01/23 15:43:39;;;;;;;12.23;6.43;;;;;;;;;;5145864;27;20059;-62
2022/01/23 15:46:09;;;;;;;14.80;7.30;;;;;;;;;;5144683;27;20059;-62
2022/01/23 15:48:35;;;;;;;15.95;7.82;;;;;;;;;;5131920;27;20059;-62
2022/01/23 15:51:03;;;;;;;14.05;7.38;;;;;;;;;;5139602;27;20134;-63
2022/01/23 15:53:29;;;;;;;15.55;8.10;;;;;;;;;;5134113;27;20823;-62
2022/01/23 15:55:56;;;;;;;17.25;7.72;;;;;;;;;;5136758;27;20052;-62
2022/01/23 15:58:22;;;;;;;14.50;7.47;;;;;;;;;;5138280;27;20057;-62
2022/01/23 16:00:48;;;;;;;15.55;8.40;;;;;;;;;;5143571;27;20055;-62
2022/01/23 16:03:15;;;;;;;16.27;7.85;;;;;;;;;;5133822;27;20055;-63
2022/01/23 16:05:42;;;;;;;16.08;8.02;;;;;;;;;;5144595;27;20052;-62
2022/01/23 16:08:08;;;;;;;17.25;8.60;;;;;;;;;;5137308;27;20048;-63
2022/01/23 16:10:34;;;;;;;16.17;8.80;;;;;;;;;;5137409;27;20536;-63
2022/01/23 16:13:00;;;;;;;17.05;8.70;;;;;;;;;;5157151;27;20052;-63
2022/01/23 16:15:28;;;;;;;17.48;9.40;;;;;;;;;;5149792;27;20551;-63
2022/01/23 16:17:55;;;;;;;18.00;9.57;;;;;;;;;;5132746;27;20131;-63
2022/01/23 16:20:21;;;;;;;19.27;8.48;;;;;;;;;;5138190;27;20849;-62
2022/01/23 16:22:48;;;;;;;17.33;9.23;;;;;;;;;;5139641;27;20050;-63
2022/01/23 16:25:16;;;;;;;20.77;10.35;;;;;;;;;;5142730;27;20051;-62
2022/01/23 16:27:42;;;;;;;18.52;8.50;;;;;;;;;;5134494;27;20055;-62
2022/01/23 16:30:18;;;;;;;17.98;9.13;;;;;;;;;;5148397;27;20043;-62
2022/01/23 16:32:45;;;;;;;26.75;11.73;;;;;;;;;;5143542;27;20056;-62
2022/01/23 16:35:14;;;;;;;21.98;10.48;;;;;;;;;;5141713;27;20156;-62
2022/01/23 16:37:41;;;;;;;20.58;10.38;;;;;;;;;;5143250;27;20597;-62
2022/01/23 16:40:07;;;;;;;22.67;11.70;;;;;;;;;;5143738;27;20051;-62
2022/01/23 16:42:33;;;;;;;20.65;10.43;;;;;;;;;;5138234;27;20047;-63
2022/01/23 16:45:00;;;;;;;19.02;10.23;;;;;;;;;;5135116;27;20139;-62
2022/01/23 16:47:26;;;;;;;19.23;8.98;;;;;;;;;;5127936;27;20497;-62
2022/01/23 16:49:52;;;;;;;18.85;9.50;;;;;;;;;;5129853;27;20048;-61
2022/01/23 16:52:19;;;;;;;17.40;9.32;;;;;;;;;;5131336;27;20048;-62
2022/01/23 16:54:46;;;;;;;19.63;10.82;;;;;;;;;;5137347;27;20051;-62
2022/01/23 16:57:20;;;;;;;22.60;9.90;;;;;;;;;;5136627;27;20523;-62
2022/01/23 16:59:46;;;;;;;18.52;10.15;;;;;;;;;;5135119;27;20169;-62
2022/01/23 17:02:12;;;;;;;17.13;9.68;;;;;;;;;;5134596;27;20776;-62
2022/01/23 17:04:39;;;;;;;17.58;9.45;;;;;;;;;;5137844;27;20063;-62
2022/01/23 17:07:05;;;;;;;19.38;9.90;;;;;;;;;;5133306;27;20052;-62
2022/01/23 17:09:33;;;;;;;17.90;9.80;;;;;;;;;;5134834;27;20073;-62
2022/01/23 17:12:04;;;;;;;17.98;9.68;;;;;;;;;;5133110;27;20051;-61
2022/01/23 17:14:30;;;;;;;18.00;10.18;;;;;;;;;;5130258;27;20067;-62
2022/01/23 17:16:57;;;;;;;16.77;8.82;;;;;;;;;;5133869;27;22421;-62
2022/01/23 17:19:23;;;;;;;20.33;10.75;;;;;;;;;;5139179;27;20185;-62
2022/01/23 17:21:49;;;;;;;20.25;10.45;;;;;;;;;;5140476;27;20085;-62
2022/01/23 17:24:16;;;;;;;21.48;11.15;;;;;;;;;;5132903;27;20052;-62
2022/01/23 17:26:44;;;;;;;19.95;10.13;;;;;;;;;;5134289;27;20139;-63
2022/01/23 17:29:11;;;;;;;20.73;11.40;;;;;;;;;;5132289;27;20058;-62
2022/01/23 17:31:37;;;;;;;20.83;10.77;;;;;;;;;;5134192;27;20055;-62
2022/01/23 17:34:04;;;;;;;21.65;11.88;;;;;;;;;;5146575;27;20058;-62
2022/01/23 17:36:30;;;;;;;24.55;13.23;;;;;;;;;;5144043;27;20632;-61
2022/01/23 17:38:56;;;;;;;26.23;14.57;;;;;;;;;;5152716;27;20509;-61
2022/01/23 17:41:23;;;;;;;23.23;12.73;;;;;;;;;;5153150;27;20053;-61
2022/01/23 17:43:49;;;;;;;28.92;14.32;;;;;;;;;;5140165;27;20529;-62
2022/01/23 17:46:21;;;;;;;32.55;15.52;;;;;;;;;;5131572;27;20054;-61
2022/01/23 17:51:24;;;;;;;26.00;14.13;;;;;;;;;;5132810;27;20142;-62
2022/01/23 17:53:53;;;;;;;27.33;13.30;;;;;;;;;;5133090;27;20074;-62
2022/01/23 17:56:20;;;;;;;26.40;13.55;;;;;;;;;;5147772;27;20498;-62
2022/01/23 17:58:49;;;;;;;23.17;12.35;;;;;;;;;;5149828;27;20055;-62